Airport View

Enter ICAO identifier to see the current METAR for that AWOS.

KFNL for example

KORB 011333Z AUTO 00000KT 10SM CLR 15/14 A3004 RMK AO2

1 Aug 2014 13:51

Frequency: 118.325

Phone: 218-757-3169

Other Area AWOS: KCQM - KCDD - KFOZ - KHIB

TAF AMD KHIB 011157Z 0112/0212 00000KT 6SM BR SCT070 TEMPO 0112/0113 1SM BR FM011400 34006KT P6SM SCT050 SCT100 FM020100 VRB03KT P6SM SKC FM020800 08003KT 5SM BR BKN050